createdAt,value
2023-04-25T00:01:39.649Z,8.50
2023-04-25T00:04:09.362Z,8.40
2023-04-25T00:06:37.296Z,8.40
2023-04-25T00:09:08.465Z,8.30
2023-04-25T00:11:35.384Z,8.40
2023-04-25T00:14:03.462Z,8.30
2023-04-25T00:16:34.463Z,8.30
2023-04-25T00:19:04.009Z,8.30
2023-04-25T00:21:32.697Z,8.40
2023-04-25T00:24:00.218Z,8.30
2023-04-25T00:26:27.812Z,8.40
2023-04-25T00:28:54.532Z,8.40
2023-04-25T00:31:21.348Z,8.40
2023-04-25T00:33:49.451Z,8.30
2023-04-25T00:36:16.368Z,8.40
2023-04-25T00:38:43.282Z,8.40
2023-04-25T00:41:10.071Z,8.40
2023-04-25T00:43:38.422Z,8.40
2023-04-25T00:46:06.464Z,8.40
2023-04-25T00:48:33.239Z,8.40
2023-04-25T00:51:01.641Z,8.40
2023-04-25T00:53:30.279Z,8.40
2023-04-25T00:55:57.188Z,8.40
2023-04-25T00:58:24.211Z,8.40
2023-04-25T01:00:53.204Z,8.40
2023-04-25T01:03:23.728Z,8.40
2023-04-25T01:05:51.972Z,8.40
2023-04-25T01:08:18.753Z,8.30
2023-04-25T01:10:45.476Z,8.30
2023-04-25T01:13:12.325Z,8.30
2023-04-25T01:15:39.212Z,8.30
2023-04-25T01:18:06.919Z,8.30
2023-04-25T01:20:35.065Z,8.30
2023-04-25T01:23:03.492Z,8.40
2023-04-25T01:25:31.828Z,8.30
2023-04-25T01:27:59.789Z,8.30
2023-04-25T01:30:30.233Z,8.30
2023-04-25T01:32:57.987Z,8.40
2023-04-25T01:35:26.009Z,8.40
2023-04-25T01:37:54.367Z,8.40
2023-04-25T01:40:23.336Z,8.30
2023-04-25T01:42:51.227Z,8.30
2023-04-25T01:45:18.684Z,8.20
2023-04-25T01:47:49.917Z,8.10
2023-04-25T01:50:19.618Z,8.10
2023-04-25T01:52:46.552Z,8.10
2023-04-25T01:55:13.341Z,8.00
2023-04-25T01:57:40.660Z,7.90
2023-04-25T02:00:09.428Z,8.00
2023-04-25T02:02:36.562Z,7.90
2023-04-25T02:05:03.488Z,7.90
2023-04-25T02:07:30.493Z,7.90
2023-04-25T02:09:57.233Z,7.90
2023-04-25T02:12:24.142Z,7.90
2023-04-25T02:14:50.938Z,7.80
2023-04-25T02:17:17.705Z,7.80
2023-04-25T02:19:44.876Z,7.80
2023-04-25T02:22:11.796Z,7.80
2023-04-25T02:24:38.796Z,7.70
2023-04-25T02:27:05.733Z,7.70
2023-04-25T02:29:32.464Z,7.70
2023-04-25T02:31:59.222Z,7.80
2023-04-25T02:34:26.066Z,7.80
2023-04-25T02:36:52.873Z,7.80
2023-04-25T02:39:19.794Z,7.80
2023-04-25T02:41:46.526Z,7.80
2023-04-25T02:44:13.193Z,7.80
2023-04-25T02:46:40.076Z,7.80
2023-04-25T02:49:07.530Z,7.80
2023-04-25T02:51:34.440Z,7.90
2023-04-25T02:54:01.213Z,7.90
2023-04-25T02:56:27.998Z,7.90
2023-04-25T02:58:55.023Z,7.90
2023-04-25T03:01:22.207Z,8.00
2023-04-25T03:03:49.394Z,8.00
2023-04-25T03:06:16.996Z,8.00
2023-04-25T03:08:44.008Z,8.00
2023-04-25T03:11:11.488Z,8.00
2023-04-25T03:13:38.366Z,8.00
2023-04-25T03:16:05.552Z,8.10
2023-04-25T03:18:32.289Z,8.10
2023-04-25T03:20:59.170Z,8.10
2023-04-25T03:23:27.023Z,8.10
2023-04-25T03:25:53.798Z,8.10
2023-04-25T03:28:21.193Z,8.00
2023-04-25T03:30:47.952Z,8.00
2023-04-25T03:33:17.562Z,8.00
2023-04-25T03:35:44.322Z,8.00
2023-04-25T03:38:11.314Z,8.00
2023-04-25T03:40:38.082Z,8.00
2023-04-25T03:43:04.821Z,8.00
2023-04-25T03:45:32.908Z,8.10
2023-04-25T03:47:59.744Z,8.00
2023-04-25T03:50:26.527Z,8.00
2023-04-25T03:52:53.414Z,8.00
2023-04-25T03:55:20.256Z,7.90
2023-04-25T03:57:47.006Z,7.90
2023-04-25T04:00:14.468Z,7.80
2023-04-25T04:02:43.129Z,7.90
2023-04-25T04:05:11.703Z,7.80
2023-04-25T04:07:41.078Z,7.80
2023-04-25T04:10:08.829Z,7.80
2023-04-25T04:12:35.582Z,7.80
2023-04-25T04:15:04.720Z,7.60
2023-04-25T04:17:31.616Z,7.60
2023-04-25T04:19:58.514Z,7.60
2023-04-25T04:22:25.457Z,7.60
2023-04-25T04:24:52.409Z,7.60
2023-04-25T04:27:20.406Z,7.50
2023-04-25T04:29:47.736Z,7.50
2023-04-25T04:32:15.499Z,7.50
2023-04-25T04:34:42.316Z,7.50
2023-04-25T04:37:09.171Z,7.50
2023-04-25T04:39:36.136Z,7.50
2023-04-25T04:42:04.173Z,7.50
2023-04-25T04:44:33.609Z,7.50
2023-04-25T04:47:00.984Z,7.50
2023-04-25T04:49:27.782Z,7.50
2023-04-25T04:51:57.300Z,7.50
2023-04-25T04:54:25.872Z,7.50
2023-04-25T04:56:53.515Z,7.50
2023-04-25T04:59:20.747Z,7.50
2023-04-25T05:01:47.871Z,7.60
2023-04-25T05:04:14.765Z,7.60
2023-04-25T05:06:41.795Z,7.60
2023-04-25T05:09:08.685Z,7.60
2023-04-25T05:11:35.495Z,7.60
2023-04-25T05:14:02.222Z,7.70
2023-04-25T05:16:28.941Z,7.70
2023-04-25T05:18:56.076Z,7.70
2023-04-25T05:21:23.377Z,7.70
2023-04-25T05:23:50.697Z,7.70
2023-04-25T05:26:17.547Z,7.80
2023-04-25T05:28:44.324Z,7.80
2023-04-25T05:31:11.677Z,7.80
2023-04-25T05:33:38.578Z,7.80
2023-04-25T05:36:05.687Z,7.80
2023-04-25T05:38:34.620Z,7.80
2023-04-25T05:41:01.949Z,7.90
2023-04-25T05:43:28.676Z,8.00
2023-04-25T05:45:55.575Z,8.00
2023-04-25T05:48:22.376Z,8.10
2023-04-25T05:50:49.188Z,8.20
2023-04-25T05:53:15.974Z,8.20
2023-04-25T05:55:42.688Z,8.30
2023-04-25T05:58:09.452Z,8.30
2023-04-25T06:00:36.276Z,8.40
2023-04-25T06:03:03.507Z,8.40
2023-04-25T06:05:30.756Z,8.50
2023-04-25T06:07:57.686Z,8.50
2023-04-25T06:10:24.429Z,8.60
2023-04-25T06:12:51.170Z,8.60
2023-04-25T06:15:28.201Z,8.70
2023-04-25T06:17:56.273Z,8.70
2023-04-25T06:20:25.325Z,8.70
2023-04-25T06:22:52.910Z,8.80
2023-04-25T06:25:19.739Z,8.90
2023-04-25T06:27:47.113Z,9.10
2023-04-25T06:30:14.034Z,9.20
2023-04-25T06:32:41.087Z,9.30
2023-04-25T06:35:08.211Z,9.40
2023-04-25T06:37:34.945Z,9.50
2023-04-25T06:40:01.917Z,9.60
2023-04-25T06:42:28.682Z,9.50
2023-04-25T06:44:55.651Z,9.50
2023-04-25T06:47:22.471Z,9.60
2023-04-25T06:49:49.193Z,9.70
2023-04-25T06:52:15.993Z,9.70
2023-04-25T06:54:42.743Z,9.90
2023-04-25T06:57:09.462Z,10.00
2023-04-25T06:59:36.219Z,10.20
2023-04-25T07:02:03.316Z,10.40
2023-04-25T07:04:30.441Z,10.20
2023-04-25T07:06:57.427Z,10.20
2023-04-25T07:09:24.275Z,10.10
2023-04-25T07:11:51.062Z,10.20
2023-04-25T07:14:17.854Z,10.20
2023-04-25T07:16:44.668Z,10.40
2023-04-25T07:19:11.384Z,10.60
2023-04-25T07:21:38.179Z,10.80
2023-04-25T07:24:05.266Z,10.80
2023-04-25T07:26:31.973Z,10.90
2023-04-25T07:28:58.691Z,11.90
2023-04-25T07:31:25.655Z,13.70
2023-04-25T07:33:52.397Z,15.50
2023-04-25T07:36:19.304Z,16.80
2023-04-25T07:38:46.129Z,17.60
2023-04-25T07:41:13.019Z,18.80
2023-04-25T07:43:39.741Z,19.90
2023-04-25T07:46:06.522Z,21.40
2023-04-25T07:48:33.278Z,21.80
2023-04-25T07:50:59.998Z,22.00
2023-04-25T07:53:26.882Z,23.70
2023-04-25T07:55:53.752Z,24.50
2023-04-25T07:58:22.854Z,23.70
2023-04-25T08:00:50.057Z,22.10
2023-04-25T08:03:17.055Z,19.90
2023-04-25T08:05:44.469Z,19.30
2023-04-25T08:08:11.498Z,20.60
2023-04-25T08:10:38.270Z,22.60
2023-04-25T08:13:05.034Z,24.10
2023-04-25T08:15:31.767Z,24.30
2023-04-25T08:17:58.567Z,24.10
2023-04-25T08:20:26.112Z,25.10
2023-04-25T08:22:52.891Z,26.40
2023-04-25T08:25:19.713Z,27.50
2023-04-25T08:27:46.483Z,28.50
2023-04-25T08:30:13.729Z,28.30
2023-04-25T08:32:40.553Z,29.10
2023-04-25T08:35:07.909Z,28.60
2023-04-25T08:37:34.612Z,28.40
2023-04-25T08:40:01.367Z,28.80
2023-04-25T08:42:29.910Z,29.40
2023-04-25T08:44:57.242Z,29.20
2023-04-25T08:47:24.920Z,27.80
2023-04-25T08:49:54.565Z,25.00
2023-04-25T08:52:25.660Z,23.80
2023-04-25T08:54:53.763Z,23.60
2023-04-25T08:57:21.844Z,25.20
2023-04-25T08:59:49.960Z,25.30
2023-04-25T09:02:19.043Z,26.30
2023-04-25T09:04:46.362Z,27.10
2023-04-25T09:07:13.286Z,27.30
2023-04-25T09:09:40.913Z,25.70
2023-04-25T09:12:07.883Z,25.70
2023-04-25T09:14:34.603Z,26.00
2023-04-25T09:17:03.570Z,25.70
2023-04-25T09:19:40.347Z,25.60
2023-04-25T09:22:08.895Z,25.50
2023-04-25T09:24:44.582Z,25.20
2023-04-25T09:27:12.847Z,24.00
2023-04-25T09:29:41.818Z,22.50
2023-04-25T09:32:25.706Z,20.70
2023-04-25T09:34:57.081Z,18.90
2023-04-25T09:37:28.660Z,17.70
2023-04-25T09:39:57.667Z,18.00
2023-04-25T09:42:26.314Z,19.50
2023-04-25T09:44:55.440Z,21.40
2023-04-25T09:47:24.810Z,21.60
2023-04-25T09:49:53.001Z,22.90
2023-04-25T09:52:25.879Z,24.80
2023-04-25T09:54:53.683Z,26.20
2023-04-25T09:57:23.289Z,27.50
2023-04-25T09:59:52.562Z,28.90
2023-04-25T10:02:21.612Z,29.70
2023-04-25T10:04:53.885Z,27.70
2023-04-25T10:07:27.316Z,25.60
2023-04-25T10:10:05.467Z,25.70
2023-04-25T10:12:34.482Z,27.30
2023-04-25T10:15:02.482Z,28.20
2023-04-25T10:17:29.581Z,28.80
2023-04-25T10:19:57.362Z,28.60
2023-04-25T10:22:47.018Z,28.20
2023-04-25T10:25:14.593Z,28.90
2023-04-25T10:27:41.339Z,29.20
2023-04-25T10:30:16.320Z,28.50
2023-04-25T10:32:44.016Z,26.20
2023-04-25T10:35:16.464Z,24.00
2023-04-25T10:38:05.384Z,22.70
2023-04-25T10:40:33.457Z,22.30
2023-04-25T10:43:38.367Z,22.50
2023-04-25T10:46:24.836Z,22.20
2023-04-25T10:48:56.828Z,20.90
2023-04-25T10:51:30.757Z,19.40
2023-04-25T10:54:04.856Z,18.00
2023-04-25T10:56:33.222Z,18.10
2023-04-25T10:59:07.805Z,18.00
2023-04-25T11:01:48.723Z,17.80
2023-04-25T11:04:32.598Z,17.60
2023-04-25T11:07:07.996Z,17.20
2023-04-25T11:09:36.901Z,17.10
2023-04-25T11:12:03.806Z,17.30
2023-04-25T11:14:30.700Z,17.50
2023-04-25T11:17:01.945Z,17.40
2023-04-25T11:19:31.328Z,17.10
2023-04-25T11:21:59.749Z,16.80
2023-04-25T11:24:37.417Z,16.60
2023-04-25T11:27:05.557Z,15.90
2023-04-25T11:29:34.137Z,16.00
2023-04-25T11:32:02.183Z,16.20
2023-04-25T11:34:33.958Z,16.30
2023-04-25T11:37:02.985Z,16.60
2023-04-25T11:39:30.455Z,16.40
2023-04-25T11:41:57.501Z,16.70
2023-04-25T11:44:24.705Z,16.50
2023-04-25T11:46:51.492Z,16.40
2023-04-25T11:49:22.165Z,16.00
2023-04-25T11:51:49.911Z,16.00
2023-04-25T11:54:16.883Z,16.00
2023-04-25T11:56:44.748Z,16.00
2023-04-25T11:59:12.662Z,15.80
2023-04-25T12:01:42.145Z,15.70
2023-04-25T12:04:19.663Z,15.90
2023-04-25T12:06:49.115Z,16.50
2023-04-25T12:09:29.596Z,16.90
2023-04-25T12:11:58.994Z,16.90
2023-04-25T12:14:27.973Z,16.70
2023-04-25T12:17:01.178Z,16.10
2023-04-25T12:19:36.958Z,15.40
2023-04-25T12:22:04.528Z,14.90
2023-04-25T12:24:38.393Z,14.40
2023-04-25T12:27:09.431Z,13.90
2023-04-25T12:29:48.580Z,13.60
2023-04-25T12:32:16.256Z,13.20
2023-04-25T12:34:43.133Z,13.30
2023-04-25T12:37:10.174Z,13.50
2023-04-25T12:39:36.962Z,13.60
2023-04-25T12:42:06.114Z,13.90
2023-04-25T12:44:35.187Z,14.10
2023-04-25T12:47:02.243Z,14.30
2023-04-25T12:49:29.133Z,14.30
2023-04-25T12:51:55.984Z,14.50
2023-04-25T12:54:22.774Z,14.50
2023-04-25T12:56:49.693Z,14.70
2023-04-25T12:59:16.504Z,14.70
2023-04-25T13:01:43.957Z,14.80
2023-04-25T13:04:10.972Z,14.90
2023-04-25T13:06:37.887Z,14.90
2023-04-25T13:09:04.783Z,14.90
2023-04-25T13:11:31.857Z,14.90
2023-04-25T13:13:58.835Z,14.20
2023-04-25T13:16:26.015Z,14.30
2023-04-25T13:18:52.841Z,14.40
2023-04-25T13:21:19.572Z,14.70
2023-04-25T13:23:47.718Z,14.70
2023-04-25T13:26:14.735Z,14.60
2023-04-25T13:28:43.551Z,14.40
2023-04-25T13:31:11.848Z,14.00
2023-04-25T13:33:39.262Z,13.50
2023-04-25T13:36:06.543Z,13.20
2023-04-25T13:38:33.539Z,12.90
2023-04-25T13:41:00.595Z,12.60
2023-04-25T13:43:27.317Z,12.50
2023-04-25T13:45:54.130Z,12.20
2023-04-25T13:48:21.146Z,12.20
2023-04-25T13:50:48.262Z,12.20
2023-04-25T13:53:15.269Z,12.30
2023-04-25T13:55:42.016Z,12.40
2023-04-25T13:58:09.166Z,12.70
2023-04-25T14:00:40.697Z,13.20
2023-04-25T14:03:10.621Z,13.40
2023-04-25T14:05:41.212Z,13.70
2023-04-25T14:08:09.599Z,13.90
2023-04-25T14:10:37.418Z,14.10
2023-04-25T14:13:06.693Z,14.10
2023-04-25T14:15:35.146Z,14.00
2023-04-25T14:18:02.563Z,13.80
2023-04-25T14:20:29.911Z,13.60
2023-04-25T14:22:58.136Z,13.80
2023-04-25T14:25:25.586Z,14.00
2023-04-25T14:27:52.451Z,14.20
2023-04-25T14:30:20.936Z,14.50
2023-04-25T14:32:49.583Z,14.50
2023-04-25T14:35:16.871Z,14.30
2023-04-25T14:37:43.687Z,14.20
2023-04-25T14:40:11.861Z,14.00
2023-04-25T14:42:38.793Z,13.70
2023-04-25T14:45:08.282Z,13.40
2023-04-25T14:47:36.743Z,13.20
2023-04-25T14:50:03.928Z,13.10
2023-04-25T14:52:30.692Z,12.90
2023-04-25T14:54:57.504Z,12.70
2023-04-25T14:57:24.202Z,12.60
2023-04-25T14:59:51.991Z,12.70
2023-04-25T15:02:18.879Z,12.60
2023-04-25T15:04:46.096Z,12.60
2023-04-25T15:07:12.902Z,12.60
2023-04-25T15:09:39.603Z,12.60
2023-04-25T15:12:06.626Z,12.80
2023-04-25T15:14:34.927Z,12.80
2023-04-25T15:17:02.223Z,12.80
2023-04-25T15:19:29.269Z,12.90
2023-04-25T15:21:56.397Z,12.70
2023-04-25T15:24:23.203Z,12.60
2023-04-25T15:26:49.993Z,12.50
2023-04-25T15:29:17.571Z,12.30
2023-04-25T15:31:45.184Z,12.10
2023-04-25T15:34:12.208Z,12.00
2023-04-25T15:36:38.962Z,11.90
2023-04-25T15:39:05.829Z,12.00
2023-04-25T15:41:32.575Z,12.10
2023-04-25T15:44:01.944Z,12.20
2023-04-25T15:46:31.272Z,12.20
2023-04-25T15:48:58.240Z,12.30
2023-04-25T15:51:25.119Z,12.40
2023-04-25T15:53:52.091Z,12.40
2023-04-25T15:56:18.966Z,12.30
2023-04-25T15:58:45.714Z,12.20
2023-04-25T16:01:12.475Z,12.10
2023-04-25T16:03:39.699Z,11.90
2023-04-25T16:06:06.851Z,11.60
2023-04-25T16:08:35.867Z,11.40
2023-04-25T16:11:03.364Z,11.20
2023-04-25T16:13:30.314Z,11.00
2023-04-25T16:15:57.693Z,9.90
2023-04-25T16:18:24.661Z,10.70
2023-04-25T16:20:51.548Z,10.70
2023-04-25T16:23:19.052Z,10.60
2023-04-25T16:25:46.846Z,10.60
2023-04-25T16:28:13.576Z,10.80
2023-04-25T16:30:40.490Z,10.90
2023-04-25T16:33:08.477Z,11.00
2023-04-25T16:35:36.645Z,11.20
2023-04-25T16:38:04.401Z,11.20
2023-04-25T16:40:31.230Z,11.20
2023-04-25T16:42:57.966Z,11.30
2023-04-25T16:45:26.215Z,11.10
2023-04-25T16:47:53.389Z,11.00
2023-04-25T16:50:20.702Z,11.00
2023-04-25T16:52:47.567Z,11.00
2023-04-25T16:55:14.387Z,11.00
2023-04-25T16:57:41.312Z,11.00
2023-04-25T17:00:09.852Z,11.00
2023-04-25T17:02:36.869Z,11.00
2023-04-25T17:05:03.930Z,11.00
2023-04-25T17:07:31.186Z,11.00
2023-04-25T17:09:57.982Z,11.00
2023-04-25T17:12:25.491Z,11.00
2023-04-25T17:14:52.516Z,10.90
2023-04-25T17:17:19.244Z,10.90
2023-04-25T17:19:46.640Z,10.90
2023-04-25T17:22:13.536Z,10.90
2023-04-25T17:24:40.781Z,10.80
2023-04-25T17:27:07.658Z,10.80
2023-04-25T17:29:35.195Z,10.60
2023-04-25T17:32:02.131Z,10.70
2023-04-25T17:34:29.124Z,10.60
2023-04-25T17:36:55.953Z,10.50
2023-04-25T17:39:22.719Z,10.50
2023-04-25T17:41:49.458Z,10.40
2023-04-25T17:44:16.208Z,10.40
2023-04-25T17:46:43.000Z,10.30
2023-04-25T17:49:09.954Z,10.30
2023-04-25T17:51:37.416Z,10.30
2023-04-25T17:54:04.212Z,10.20
2023-04-25T17:56:31.222Z,10.10
2023-04-25T17:58:58.160Z,10.10
2023-04-25T18:01:24.920Z,10.00
2023-04-25T18:03:52.209Z,9.90
2023-04-25T18:06:19.307Z,9.70
2023-04-25T18:08:47.266Z,9.60
2023-04-25T18:11:14.360Z,9.60
2023-04-25T18:13:41.497Z,9.50
2023-04-25T18:16:08.872Z,9.50
2023-04-25T18:18:36.873Z,9.50
2023-04-25T18:21:05.763Z,9.50
2023-04-25T18:23:34.229Z,9.40
2023-04-25T18:26:02.349Z,9.40
2023-04-25T18:28:29.451Z,9.40
2023-04-25T18:30:56.918Z,9.40
2023-04-25T18:33:23.934Z,9.40
2023-04-25T18:35:58.197Z,9.30
2023-04-25T18:41:08.366Z,9.30
2023-04-25T18:43:44.424Z,9.20
2023-04-25T18:46:11.354Z,9.20
2023-04-25T18:48:38.238Z,9.20
2023-04-25T18:51:05.682Z,9.10
2023-04-25T18:53:32.728Z,9.10
2023-04-25T18:55:59.477Z,9.10
2023-04-25T18:58:26.375Z,9.00
2023-04-25T19:00:53.636Z,9.00
2023-04-25T19:03:21.315Z,9.00
2023-04-25T19:05:48.173Z,9.00
2023-04-25T19:08:14.854Z,8.90
2023-04-25T19:10:41.661Z,8.90
2023-04-25T19:13:08.641Z,8.90
2023-04-25T19:15:35.786Z,8.80
2023-04-25T19:18:02.808Z,8.80
2023-04-25T19:20:29.599Z,8.70
2023-04-25T19:22:56.846Z,8.70
2023-04-25T19:25:24.966Z,8.70
2023-04-25T19:27:52.205Z,8.70
2023-04-25T19:30:19.481Z,8.60
2023-04-25T19:32:46.409Z,8.60
2023-04-25T19:35:13.495Z,8.60
2023-04-25T19:37:46.186Z,8.60
2023-04-25T19:40:14.782Z,8.50
2023-04-25T19:42:41.694Z,8.50
2023-04-25T19:45:09.216Z,8.50
2023-04-25T19:47:39.355Z,8.50
2023-04-25T19:50:08.640Z,8.50
2023-04-25T19:52:36.256Z,8.40
2023-04-25T19:55:04.966Z,8.40
2023-04-25T19:57:37.613Z,8.30
2023-04-25T20:00:14.379Z,8.20
2023-04-25T20:02:42.171Z,8.20
2023-04-25T20:05:09.539Z,8.10
2023-04-25T20:07:36.366Z,8.00
2023-04-25T20:10:06.545Z,7.80
2023-04-25T20:12:34.534Z,7.70
2023-04-25T20:15:01.692Z,7.70
2023-04-25T20:17:28.497Z,7.60
2023-04-25T20:19:56.243Z,7.40
2023-04-25T20:22:23.023Z,7.30
2023-04-25T20:24:49.761Z,7.20
2023-04-25T20:27:16.464Z,7.10
2023-04-25T20:29:43.135Z,7.00
2023-04-25T20:32:09.970Z,6.90
2023-04-25T20:34:37.198Z,6.80
2023-04-25T20:37:05.979Z,6.80
2023-04-25T20:39:33.494Z,6.80
2023-04-25T20:42:00.355Z,6.90
2023-04-25T20:44:27.103Z,6.80
2023-04-25T20:46:53.885Z,6.80
2023-04-25T20:49:20.876Z,6.80
2023-04-25T20:51:47.697Z,6.80
2023-04-25T20:54:14.486Z,6.70
2023-04-25T20:56:41.440Z,6.70
2023-04-25T20:59:09.173Z,6.60
2023-04-25T21:01:36.051Z,6.50
2023-04-25T21:04:03.035Z,6.50
2023-04-25T21:06:29.908Z,6.50
2023-04-25T21:08:56.611Z,6.50
2023-04-25T21:11:23.612Z,6.60
2023-04-25T21:13:50.806Z,6.50
2023-04-25T21:16:17.646Z,6.50
2023-04-25T21:18:44.597Z,6.40
2023-04-25T21:21:11.448Z,6.30
2023-04-25T21:23:38.260Z,6.20
2023-04-25T21:26:05.635Z,6.10
2023-04-25T21:28:32.467Z,6.00
2023-04-25T21:30:59.385Z,5.90
2023-04-25T21:33:26.142Z,5.80
2023-04-25T21:35:52.863Z,5.80
2023-04-25T21:38:19.632Z,5.70
2023-04-25T21:40:46.383Z,5.60
2023-04-25T21:43:13.151Z,5.50
2023-04-25T21:45:56.987Z,5.30
2023-04-25T21:48:26.703Z,5.20
2023-04-25T21:50:53.674Z,5.00
2023-04-25T21:53:21.015Z,4.90
2023-04-25T21:55:47.716Z,4.80
2023-04-25T21:58:14.552Z,4.80
2023-04-25T22:00:42.851Z,4.80
2023-04-25T22:03:09.940Z,4.70
2023-04-25T22:05:37.126Z,4.70
2023-04-25T22:08:04.074Z,4.60
2023-04-25T22:10:31.445Z,4.50
2023-04-25T22:12:58.404Z,4.50
2023-04-25T22:15:25.568Z,4.50
2023-04-25T22:17:55.469Z,4.40
2023-04-25T22:20:26.161Z,4.40
2023-04-25T22:22:54.613Z,4.30
2023-04-25T22:25:22.099Z,4.20
2023-04-25T22:27:49.439Z,4.10
2023-04-25T22:30:16.332Z,4.10
2023-04-25T22:32:43.408Z,4.10
2023-04-25T22:35:10.651Z,4.10
2023-04-25T22:37:37.773Z,4.00
2023-04-25T22:40:09.134Z,4.10
2023-04-25T22:42:40.284Z,4.10
2023-04-25T22:45:08.318Z,4.20
2023-04-25T22:47:36.407Z,4.20
2023-04-25T22:50:06.425Z,4.20
2023-04-25T22:52:34.655Z,4.20
2023-04-25T22:55:03.075Z,4.20
2023-04-25T22:57:30.369Z,4.10
2023-04-25T22:59:57.570Z,4.00
2023-04-25T23:02:25.813Z,3.90
2023-04-25T23:04:53.621Z,3.90
2023-04-25T23:07:20.854Z,3.80
2023-04-25T23:09:47.606Z,3.80
2023-04-25T23:12:18.086Z,3.80
2023-04-25T23:14:49.065Z,3.70
2023-04-25T23:17:16.151Z,3.70
2023-04-25T23:19:43.036Z,3.70
2023-04-25T23:22:10.001Z,3.60
2023-04-25T23:24:40.598Z,3.60
2023-04-25T23:27:07.633Z,3.50
2023-04-25T23:29:34.778Z,3.40
2023-04-25T23:32:01.672Z,3.40
2023-04-25T23:34:32.478Z,3.30
2023-04-25T23:37:04.416Z,3.30
2023-04-25T23:39:31.651Z,3.30
2023-04-25T23:41:58.348Z,3.20
2023-04-25T23:44:25.124Z,3.20
2023-04-25T23:46:53.574Z,3.10
2023-04-25T23:49:21.056Z,3.10
2023-04-25T23:51:47.873Z,3.00
2023-04-25T23:54:15.409Z,2.90
2023-04-25T23:56:42.210Z,2.90
2023-04-25T23:59:09.146Z,2.80
